createdAt,value
2022-11-24T00:04:44.626Z,1.75
2022-11-24T00:09:52.136Z,1.81
2022-11-24T00:14:57.130Z,1.67
2022-11-24T00:20:02.410Z,1.67
2022-11-24T00:25:10.881Z,1.50
2022-11-24T00:30:16.360Z,1.52
2022-11-24T00:35:21.428Z,1.56
2022-11-24T00:40:34.712Z,1.60
2022-11-24T00:45:40.069Z,1.68
2022-11-24T00:50:45.248Z,1.94
2022-11-24T00:55:54.919Z,1.68
2022-11-24T01:01:05.818Z,1.85
2022-11-24T01:06:12.733Z,1.78
2022-11-24T01:11:22.187Z,1.78
2022-11-24T01:16:29.212Z,1.66
2022-11-24T01:21:34.157Z,1.61
2022-11-24T01:26:42.363Z,1.66
2022-11-24T01:31:47.341Z,1.25
2022-11-24T01:36:52.313Z,1.39
2022-11-24T01:41:59.874Z,1.59
2022-11-24T01:47:08.780Z,1.76
2022-11-24T01:52:17.312Z,1.77
2022-11-24T01:57:28.208Z,1.40
2022-11-24T02:02:33.656Z,1.13
2022-11-24T02:07:41.919Z,0.95
2022-11-24T02:12:51.935Z,1.04
2022-11-24T02:17:57.059Z,1.05
2022-11-24T02:23:08.640Z,1.03
2022-11-24T02:28:21.186Z,1.04
2022-11-24T02:33:26.800Z,1.19
2022-11-24T02:38:34.230Z,0.93
2022-11-24T02:43:45.162Z,1.00
2022-11-24T02:48:50.220Z,1.06
2022-11-24T02:53:55.271Z,1.05
2022-11-24T02:59:02.986Z,1.06
2022-11-24T03:04:09.817Z,0.96
2022-11-24T03:09:14.904Z,0.98
2022-11-24T03:14:22.423Z,0.93
2022-11-24T03:19:27.507Z,0.95
2022-11-24T03:24:32.889Z,0.93
2022-11-24T03:29:40.710Z,1.00
2022-11-24T03:34:45.681Z,0.91
2022-11-24T03:39:50.837Z,0.85
2022-11-24T03:45:01.653Z,0.75
2022-11-24T03:50:17.043Z,0.60
2022-11-24T03:55:22.296Z,0.58
2022-11-24T04:00:30.531Z,0.53
2022-11-24T04:05:36.497Z,0.54
2022-11-24T04:10:42.555Z,0.56
2022-11-24T04:15:50.237Z,0.39
2022-11-24T04:20:55.676Z,0.46
2022-11-24T04:26:00.651Z,0.51
2022-11-24T04:31:09.244Z,0.48
2022-11-24T04:36:14.920Z,0.58
2022-11-24T04:41:19.932Z,0.27
2022-11-24T04:46:27.614Z,0.25
2022-11-24T04:51:32.895Z,0.40
2022-11-24T04:56:37.867Z,0.45
2022-11-24T05:01:46.719Z,0.35
2022-11-24T05:06:52.118Z,0.51
2022-11-24T05:11:57.380Z,0.45
2022-11-24T05:17:05.277Z,0.40
2022-11-24T05:22:11.620Z,0.54
2022-11-24T05:27:18.011Z,0.68
2022-11-24T05:32:26.060Z,0.79
2022-11-24T05:37:32.160Z,0.88
2022-11-24T05:42:47.041Z,0.88
2022-11-24T05:47:56.750Z,0.85
2022-11-24T05:53:05.183Z,0.84
2022-11-24T05:58:11.671Z,0.86
2022-11-24T06:03:19.345Z,1.04
2022-11-24T06:08:31.057Z,1.14
2022-11-24T06:13:39.300Z,1.21
2022-11-24T06:18:47.824Z,1.21
2022-11-24T06:23:54.000Z,1.28
2022-11-24T06:29:01.572Z,1.27
2022-11-24T06:34:15.428Z,1.36
2022-11-24T06:39:21.727Z,1.28
2022-11-24T06:44:27.218Z,1.28
2022-11-24T06:49:46.603Z,1.35
2022-11-24T06:54:51.823Z,1.47
2022-11-24T06:59:57.605Z,1.49
2022-11-24T07:05:08.079Z,1.57
2022-11-24T07:10:13.585Z,1.52
2022-11-24T07:15:20.979Z,1.53
2022-11-24T07:20:28.946Z,1.85
2022-11-24T07:25:33.926Z,1.82
2022-11-24T07:30:38.797Z,1.75
2022-11-24T07:35:46.917Z,1.73
2022-11-24T07:40:53.430Z,2.02
2022-11-24T07:46:01.762Z,1.97
2022-11-24T07:51:10.467Z,1.78
2022-11-24T07:56:24.025Z,1.83
2022-11-24T08:01:30.587Z,2.03
2022-11-24T08:06:44.602Z,1.87
2022-11-24T08:11:54.114Z,2.10
2022-11-24T08:17:00.407Z,2.05
2022-11-24T08:22:08.029Z,2.18
2022-11-24T08:27:12.943Z,2.44
2022-11-24T08:32:22.219Z,2.62
2022-11-24T08:37:32.716Z,2.61
2022-11-24T08:42:38.031Z,2.60
2022-11-24T08:47:42.948Z,2.67
2022-11-24T08:52:53.299Z,2.70
2022-11-24T08:57:58.207Z,2.90
2022-11-24T09:03:03.051Z,3.05
2022-11-24T09:08:10.722Z,3.19
2022-11-24T09:13:15.773Z,3.35
2022-11-24T09:18:20.706Z,3.47
2022-11-24T09:23:28.357Z,3.50
2022-11-24T09:28:33.298Z,3.51
2022-11-24T09:33:39.335Z,3.61
2022-11-24T09:38:46.989Z,3.63
2022-11-24T09:44:03.395Z,3.74
2022-11-24T09:49:15.870Z,3.76
2022-11-24T09:54:28.261Z,3.85
2022-11-24T09:59:33.466Z,4.00
2022-11-24T10:04:44.958Z,4.06
2022-11-24T10:10:02.888Z,4.15
2022-11-24T10:15:25.734Z,4.56
2022-11-24T10:20:44.764Z,4.68
2022-11-24T10:25:59.693Z,5.07
2022-11-24T10:31:20.678Z,4.73
2022-11-24T10:36:35.359Z,4.82
2022-11-24T10:41:53.555Z,4.94
2022-11-24T10:46:58.679Z,5.08
2022-11-24T10:52:10.252Z,5.48
2022-11-24T10:57:31.382Z,5.64
2022-11-24T11:02:45.491Z,5.55
2022-11-24T11:07:51.895Z,5.82
2022-11-24T11:13:00.408Z,6.20
2022-11-24T11:18:09.841Z,6.40
2022-11-24T11:23:27.463Z,6.65
2022-11-24T11:28:37.772Z,6.79
2022-11-24T11:39:08.246Z,7.12
2022-11-24T11:44:34.617Z,7.18
2022-11-24T11:49:42.237Z,7.29
2022-11-24T11:55:12.656Z,7.11
2022-11-24T12:00:28.394Z,7.16
2022-11-24T12:05:52.948Z,7.25
2022-11-24T12:11:10.320Z,6.94
2022-11-24T12:16:31.362Z,7.14
2022-11-24T12:21:44.583Z,7.20
2022-11-24T12:26:53.878Z,7.32
2022-11-24T12:32:15.913Z,7.15
2022-11-24T12:37:52.184Z,7.28
2022-11-24T12:43:06.238Z,7.16
2022-11-24T12:48:33.486Z,7.08
2022-11-24T12:53:44.500Z,7.34
2022-11-24T12:58:59.012Z,7.30
2022-11-24T13:04:15.790Z,7.37
2022-11-24T13:09:21.074Z,7.51
2022-11-24T13:14:34.894Z,7.57
2022-11-24T13:19:44.363Z,7.79
2022-11-24T13:25:14.710Z,8.10
2022-11-24T13:30:53.045Z,7.91
2022-11-24T13:36:36.748Z,7.91
2022-11-24T13:42:05.353Z,7.74
2022-11-24T13:47:32.309Z,7.81
2022-11-24T13:53:02.037Z,8.02
2022-11-24T13:58:35.133Z,7.93
2022-11-24T14:04:07.095Z,7.85
2022-11-24T14:09:29.062Z,7.90
2022-11-24T14:14:37.395Z,7.88
2022-11-24T14:19:47.156Z,7.89
2022-11-24T14:24:57.979Z,7.80
2022-11-24T14:30:21.357Z,7.78
2022-11-24T14:35:36.247Z,7.77
2022-11-24T14:40:43.794Z,7.84
2022-11-24T14:46:00.627Z,7.79
2022-11-24T14:51:21.247Z,7.76
2022-11-24T14:56:29.100Z,7.70
2022-11-24T15:01:38.481Z,7.72
2022-11-24T15:06:44.834Z,7.69
2022-11-24T15:11:50.851Z,7.58
2022-11-24T15:17:01.777Z,7.38
2022-11-24T15:22:39.292Z,7.24
2022-11-24T15:27:44.547Z,7.37
2022-11-24T15:32:57.778Z,7.24
2022-11-24T15:38:03.013Z,7.15
2022-11-24T15:43:21.707Z,6.96
2022-11-24T15:48:31.346Z,6.85
2022-11-24T15:53:40.650Z,6.88
2022-11-24T15:58:48.655Z,6.94
2022-11-24T16:03:56.921Z,6.84
2022-11-24T16:09:04.029Z,7.05
2022-11-24T16:14:09.653Z,7.21
2022-11-24T16:19:19.362Z,6.70
2022-11-24T16:24:25.562Z,6.72
2022-11-24T16:29:35.338Z,6.54
2022-11-24T16:34:45.850Z,6.44
2022-11-24T16:39:51.688Z,6.49
2022-11-24T16:45:00.118Z,6.47
2022-11-24T16:50:09.372Z,6.47
2022-11-24T16:55:14.414Z,6.69
2022-11-24T17:00:21.791Z,6.79
2022-11-24T17:05:29.523Z,6.81
2022-11-24T17:10:34.648Z,6.82
2022-11-24T17:15:46.214Z,6.70
2022-11-24T17:21:03.143Z,6.27
2022-11-24T17:26:17.022Z,6.08
2022-11-24T17:31:25.110Z,6.21
2022-11-24T17:36:35.087Z,6.44
2022-11-24T17:41:40.132Z,6.62
2022-11-24T17:46:45.136Z,6.59
2022-11-24T17:51:53.184Z,6.51
2022-11-24T17:56:58.190Z,6.39
2022-11-24T18:02:03.380Z,5.67
2022-11-24T18:07:12.181Z,5.48
2022-11-24T18:12:17.278Z,5.52
2022-11-24T18:17:22.254Z,5.60
2022-11-24T18:22:57.736Z,5.75
2022-11-24T18:27:59.047Z,5.70
2022-11-24T18:33:05.067Z,5.53
2022-11-24T18:38:13.364Z,5.71
2022-11-24T18:43:18.496Z,5.66
2022-11-24T18:48:24.450Z,5.52
2022-11-24T18:53:32.666Z,5.07
2022-11-24T18:58:38.840Z,4.99
2022-11-24T19:03:48.600Z,4.99
2022-11-24T19:08:58.807Z,4.98
2022-11-24T19:14:04.160Z,5.06
2022-11-24T19:19:09.717Z,4.94
2022-11-24T19:24:17.532Z,4.88
2022-11-24T19:29:22.576Z,4.90
2022-11-24T19:34:27.707Z,4.98
2022-11-24T19:39:37.104Z,5.12
2022-11-24T19:44:42.438Z,5.05
2022-11-24T19:49:47.915Z,4.90
2022-11-24T19:54:56.126Z,4.90
2022-11-24T20:00:01.808Z,4.96
2022-11-24T20:05:10.037Z,5.05
2022-11-24T20:10:18.337Z,5.07
2022-11-24T20:15:24.006Z,5.13
2022-11-24T20:20:29.538Z,5.31
2022-11-24T20:25:41.482Z,5.35
2022-11-24T20:30:46.917Z,5.34
2022-11-24T20:35:52.110Z,5.30
2022-11-24T20:41:08.764Z,5.19
2022-11-24T20:46:17.182Z,5.11
2022-11-24T20:51:24.731Z,5.17
2022-11-24T20:56:35.126Z,5.20
2022-11-24T21:01:42.599Z,5.22
2022-11-24T21:06:50.784Z,5.21
2022-11-24T21:11:58.482Z,5.19
2022-11-24T21:17:03.572Z,5.28
2022-11-24T21:22:08.464Z,5.29
2022-11-24T21:27:16.113Z,5.37
2022-11-24T21:32:21.143Z,5.39
2022-11-24T21:37:26.248Z,5.23
2022-11-24T21:42:33.939Z,5.36
2022-11-24T21:47:39.062Z,5.30
2022-11-24T21:52:44.064Z,5.51
2022-11-24T21:57:51.962Z,5.51
2022-11-24T22:02:57.656Z,5.38
2022-11-24T22:08:02.718Z,5.27
2022-11-24T22:13:10.599Z,5.26
2022-11-24T22:18:15.607Z,5.29
2022-11-24T22:23:20.646Z,5.20
2022-11-24T22:28:28.175Z,5.13
2022-11-24T22:33:33.404Z,5.07
2022-11-24T22:38:38.371Z,5.01
2022-11-24T22:43:47.097Z,4.92
2022-11-24T22:48:55.951Z,5.06
2022-11-24T22:54:03.128Z,5.21
2022-11-24T22:59:11.328Z,5.28
2022-11-24T23:04:16.487Z,5.19
2022-11-24T23:09:21.486Z,5.15
2022-11-24T23:14:29.429Z,5.00
2022-11-24T23:19:34.282Z,5.00
2022-11-24T23:24:39.301Z,5.33
2022-11-24T23:29:47.136Z,5.29
2022-11-24T23:34:52.121Z,5.12
2022-11-24T23:39:57.112Z,5.01
2022-11-24T23:45:05.911Z,5.05
2022-11-24T23:50:11.851Z,5.29
2022-11-24T23:55:17.463Z,5.36
